sensor_id;sensor_type;location;lat;lon;timestamp;pressure;altitude;pressure_sealevel;temperature;humidity
43153;BME280;28756;49.064;9.290;2023-04-10T00:02:18;99750.28;;;1.93;100.00
43153;BME280;28756;49.064;9.290;2023-04-10T00:04:43;99746.88;;;1.89;100.00
43153;BME280;28756;49.064;9.290;2023-04-10T00:07:09;99757.16;;;1.86;100.00
43153;BME280;28756;49.064;9.290;2023-04-10T00:09:35;99757.19;;;1.78;100.00
43153;BME280;28756;49.064;9.290;2023-04-10T00:12:01;99758.06;;;1.76;100.00
43153;BME280;28756;49.064;9.290;2023-04-10T00:14:27;99755.53;;;1.71;100.00
43153;BME280;28756;49.064;9.290;2023-04-10T00:16:52;99745.31;;;1.66;100.00
43153;BME280;28756;49.064;9.290;2023-04-10T00:19:18;99749.66;;;1.61;100.00
43153;BME280;28756;49.064;9.290;2023-04-10T00:21:44;99750.41;;;1.71;100.00
43153;BME280;28756;49.064;9.290;2023-04-10T00:24:10;99744.44;;;1.73;100.00
43153;BME280;28756;49.064;9.290;2023-04-10T00:26:36;99749.59;;;1.67;100.00
43153;BME280;28756;49.064;9.290;2023-04-10T00:29:02;99743.66;;;1.59;100.00
43153;BME280;28756;49.064;9.290;2023-04-10T00:31:29;99734.28;;;1.56;100.00
43153;BME280;28756;49.064;9.290;2023-04-10T00:33:56;99746.28;;;1.53;100.00
43153;BME280;28756;49.064;9.290;2023-04-10T00:36:21;99741.19;;;1.47;100.00
43153;BME280;28756;49.064;9.290;2023-04-10T00:38:47;99741.22;;;1.44;100.00
43153;BME280;28756;49.064;9.290;2023-04-10T00:41:15;99749.75;;;1.46;100.00
43153;BME280;28756;49.064;9.290;2023-04-10T00:43:42;99740.34;;;1.45;100.00
43153;BME280;28756;49.064;9.290;2023-04-10T00:46:08;99743.78;;;1.45;100.00
43153;BME280;28756;49.064;9.290;2023-04-10T00:48:34;99734.44;;;1.36;100.00
43153;BME280;28756;49.064;9.290;2023-04-10T00:51:01;99727.59;;;1.35;100.00
43153;BME280;28756;49.064;9.290;2023-04-10T00:53:27;99726.75;;;1.35;100.00
43153;BME280;28756;49.064;9.290;2023-04-10T00:55:54;99731.00;;;1.34;100.00
43153;BME280;28756;49.064;9.290;2023-04-10T00:58:21;99727.66;;;1.29;100.00
43153;BME280;28756;49.064;9.290;2023-04-10T01:00:47;99725.13;;;1.26;100.00
43153;BME280;28756;49.064;9.290;2023-04-10T01:03:15;99724.28;;;1.24;100.00
43153;BME280;28756;49.064;9.290;2023-04-10T01:06:01;99727.69;;;1.23;100.00
43153;BME280;28756;49.064;9.290;2023-04-10T01:09:07;99726.00;;;1.17;100.00
43153;BME280;28756;49.064;9.290;2023-04-10T01:15:15;99723.44;;;1.19;100.00
43153;BME280;28756;49.064;9.290;2023-04-10T01:20:50;99730.31;;;1.09;100.00
43153;BME280;28756;49.064;9.290;2023-04-10T01:24:00;99733.78;;;1.02;100.00
43153;BME280;28756;49.064;9.290;2023-04-10T01:26:44;99745.75;;;0.93;100.00
43153;BME280;28756;49.064;9.290;2023-04-10T01:29:16;99745.78;;;0.89;100.00
43153;BME280;28756;49.064;9.290;2023-04-10T01:31:57;99754.34;;;0.85;100.00
43153;BME280;28756;49.064;9.290;2023-04-10T01:34:34;99756.06;;;0.86;100.00
43153;BME280;28756;49.064;9.290;2023-04-10T01:37:17;99752.66;;;0.82;100.00
43153;BME280;28756;49.064;9.290;2023-04-10T01:39:48;99744.97;;;0.84;100.00
43153;BME280;28756;49.064;9.290;2023-04-10T01:42:17;99749.22;;;0.85;100.00
43153;BME280;28756;49.064;9.290;2023-04-10T01:44:45;99747.50;;;0.85;100.00
43153;BME280;28756;49.064;9.290;2023-04-10T01:47:14;99747.53;;;0.84;100.00
43153;BME280;28756;49.064;9.290;2023-04-10T01:49:46;99746.69;;;0.75;100.00
43153;BME280;28756;49.064;9.290;2023-04-10T01:52:14;99749.25;;;0.75;100.00
43153;BME280;28756;49.064;9.290;2023-04-10T01:54:41;99740.75;;;0.72;100.00
43153;BME280;28756;49.064;9.290;2023-04-10T01:57:10;99749.28;;;0.74;100.00
43153;BME280;28756;49.064;9.290;2023-04-10T01:59:38;99737.34;;;0.63;100.00
43153;BME280;28756;49.064;9.290;2023-04-10T02:02:04;99741.63;;;0.65;100.00
43153;BME280;28756;49.064;9.290;2023-04-10T02:04:32;99743.34;;;0.66;100.00
43153;BME280;28756;49.064;9.290;2023-04-10T02:07:03;99731.38;;;0.66;100.00
43153;BME280;28756;49.064;9.290;2023-04-10T02:12:51;99739.88;;;0.71;100.00
43153;BME280;28756;49.064;9.290;2023-04-10T02:15:22;99731.34;;;0.68;100.00
43153;BME280;28756;49.064;9.290;2023-04-10T02:17:50;99733.97;;;0.63;100.00
43153;BME280;28756;49.064;9.290;2023-04-10T02:20:17;99733.97;;;0.60;100.00
43153;BME280;28756;49.064;9.290;2023-04-10T02:22:46;99731.41;;;0.52;100.00
43153;BME280;28756;49.064;9.290;2023-04-10T02:25:11;99734.03;;;0.43;100.00
43153;BME280;28756;49.064;9.290;2023-04-10T02:27:38;99730.63;;;0.36;100.00
43153;BME280;28756;49.064;9.290;2023-04-10T02:30:04;99736.59;;;0.34;100.00
43153;BME280;28756;49.064;9.290;2023-04-10T02:32:31;99745.13;;;0.31;100.00
43153;BME280;28756;49.064;9.290;2023-04-10T02:34:58;99745.97;;;0.31;100.00
43153;BME280;28756;49.064;9.290;2023-04-10T02:37:24;99756.22;;;0.30;100.00
43153;BME280;28756;49.064;9.290;2023-04-10T02:39:51;99757.09;;;0.23;100.00
43153;BME280;28756;49.064;9.290;2023-04-10T02:42:17;99757.09;;;0.20;100.00
43153;BME280;28756;49.064;9.290;2023-04-10T02:44:42;99756.25;;;0.19;100.00
43153;BME280;28756;49.064;9.290;2023-04-10T02:47:08;99760.50;;;0.17;100.00
43153;BME280;28756;49.064;9.290;2023-04-10T02:49:34;99755.38;;;0.20;100.00
43153;BME280;28756;49.064;9.290;2023-04-10T02:52:00;99752.81;;;0.20;100.00
43153;BME280;28756;49.064;9.290;2023-04-10T02:54:26;99751.97;;;0.17;100.00
43153;BME280;28756;49.064;9.290;2023-04-10T02:56:52;99746.84;;;0.15;100.00
43153;BME280;28756;49.064;9.290;2023-04-10T02:59:18;99746.84;;;0.17;100.00
43153;BME280;28756;49.064;9.290;2023-04-10T03:01:45;99755.38;;;0.19;100.00
43153;BME280;28756;49.064;9.290;2023-04-10T03:04:12;99751.09;;;0.24;100.00
43153;BME280;28756;49.064;9.290;2023-04-10T03:06:37;99757.09;;;0.23;100.00
43153;BME280;28756;49.064;9.290;2023-04-10T03:09:03;99756.25;;;0.19;100.00
43153;BME280;28756;49.064;9.290;2023-04-10T03:11:29;99742.59;;;0.19;100.00
43153;BME280;28756;49.064;9.290;2023-04-10T03:13:55;99741.75;;;0.15;100.00
43153;BME280;28756;49.064;9.290;2023-04-10T03:16:23;99751.13;;;0.13;100.00
43153;BME280;28756;49.064;9.290;2023-04-10T03:18:49;99740.88;;;0.08;100.00
43153;BME280;28756;49.064;9.290;2023-04-10T03:21:15;99740.03;;;0.05;100.00
43153;BME280;28756;49.064;9.290;2023-04-10T03:23:41;99737.50;;;-0.02;100.00
43153;BME280;28756;49.064;9.290;2023-04-10T03:26:07;99728.09;;;0.02;100.00
43153;BME280;28756;49.064;9.290;2023-04-10T03:28:33;99732.38;;;-0.03;100.00
43153;BME280;28756;49.064;9.290;2023-04-10T03:31:02;99719.63;;;-0.05;100.00
43153;BME280;28756;49.064;9.290;2023-04-10T03:33:28;99725.56;;;-0.03;100.00
43153;BME280;28756;49.064;9.290;2023-04-10T03:35:54;99717.06;;;-0.05;100.00
43153;BME280;28756;49.064;9.290;2023-04-10T03:38:21;99715.31;;;-0.03;100.00
43153;BME280;28756;49.064;9.290;2023-04-10T03:40:47;99713.63;;;-0.05;100.00
43153;BME280;28756;49.064;9.290;2023-04-10T03:43:13;99713.66;;;-0.08;100.00
43153;BME280;28756;49.064;9.290;2023-04-10T03:45:39;99711.94;;;-0.11;100.00
43153;BME280;28756;49.064;9.290;2023-04-10T03:48:05;99714.50;;;-0.12;100.00
43153;BME280;28756;49.064;9.290;2023-04-10T03:50:30;99716.19;;;-0.16;100.00
43153;BME280;28756;49.064;9.290;2023-04-10T03:52:56;99719.59;;;-0.22;100.00
43153;BME280;28756;49.064;9.290;2023-04-10T03:55:22;99723.88;;;-0.22;100.00
43153;BME280;28756;49.064;9.290;2023-04-10T03:57:48;99714.50;;;-0.23;100.00
43153;BME280;28756;49.064;9.290;2023-04-10T04:00:14;99712.81;;;-0.20;100.00
43153;BME280;28756;49.064;9.290;2023-04-10T04:02:41;99712.81;;;-0.26;100.00
43153;BME280;28756;49.064;9.290;2023-04-10T04:05:08;99711.94;;;-0.23;100.00
43153;BME280;28756;49.064;9.290;2023-04-10T04:07:34;99710.25;;;-0.26;100.00
43153;BME280;28756;49.064;9.290;2023-04-10T04:10:00;99715.38;;;-0.21;100.00
43153;BME280;28756;49.064;9.290;2023-04-10T04:12:26;99718.75;;;-0.21;100.00
43153;BME280;28756;49.064;9.290;2023-04-10T04:14:52;99719.59;;;-0.16;100.00
43153;BME280;28756;49.064;9.290;2023-04-10T04:17:18;99711.94;;;-0.14;100.00
43153;BME280;28756;49.064;9.290;2023-04-10T04:19:43;99710.25;;;-0.06;100.00
43153;BME280;28756;49.064;9.290;2023-04-10T04:22:10;99699.16;;;-0.09;100.00
43153;BME280;28756;49.064;9.290;2023-04-10T04:24:36;99695.75;;;-0.11;100.00
43153;BME280;28756;49.064;9.290;2023-04-10T04:27:02;99704.25;;;-0.08;100.00
43153;BME280;28756;49.064;9.290;2023-04-10T04:29:28;99702.56;;;-0.01;100.00
43153;BME280;28756;49.064;9.290;2023-04-10T04:31:53;99703.41;;;-0.02;100.00
43153;BME280;28756;49.064;9.290;2023-04-10T04:34:19;99699.16;;;0.00;100.00
43153;BME280;28756;49.064;9.290;2023-04-10T04:36:45;99699.97;;;0.07;100.00
43153;BME280;28756;49.064;9.290;2023-04-10T04:39:10;99700.84;;;0.07;100.00
43153;BME280;28756;49.064;9.290;2023-04-10T04:41:36;99695.72;;;0.10;100.00
43153;BME280;28756;49.064;9.290;2023-04-10T04:44:03;99702.50;;;0.21;100.00
43153;BME280;28756;49.064;9.290;2023-04-10T04:46:29;99703.34;;;0.21;100.00
43153;BME280;28756;49.064;9.290;2023-04-10T04:48:55;99701.63;;;0.25;100.00
43153;BME280;28756;49.064;9.290;2023-04-10T04:51:20;99699.09;;;0.28;100.00
43153;BME280;28756;49.064;9.290;2023-04-10T04:53:46;99697.38;;;0.31;100.00
43153;BME280;28756;49.064;9.290;2023-04-10T04:56:12;99697.34;;;0.36;100.00
43153;BME280;28756;49.064;9.290;2023-04-10T04:58:38;99690.50;;;0.41;100.00
43153;BME280;28756;49.064;9.290;2023-04-10T05:01:04;99696.47;;;0.43;100.00
43153;BME280;28756;49.064;9.290;2023-04-10T05:03:30;99694.75;;;0.50;100.00
43153;BME280;28756;49.064;9.290;2023-04-10T05:05:56;99698.13;;;0.58;100.00
43153;BME280;28756;49.064;9.290;2023-04-10T05:08:22;99698.06;;;0.68;100.00
43153;BME280;28756;49.064;9.290;2023-04-10T05:10:48;99697.16;;;0.79;100.00
43153;BME280;28756;49.064;9.290;2023-04-10T05:13:14;99690.31;;;0.89;100.00
43153;BME280;28756;49.064;9.290;2023-04-10T05:15:44;99690.97;;;1.21;100.00
43153;BME280;28756;49.064;9.290;2023-04-10T05:18:10;99684.84;;;1.45;100.00
43153;BME280;28756;49.064;9.290;2023-04-10T05:20:38;99678.69;;;1.65;100.00
43153;BME280;28756;49.064;9.290;2023-04-10T05:23:04;99670.63;;;2.02;100.00
43153;BME280;28756;49.064;9.290;2023-04-10T05:25:30;99671.25;;;2.27;100.00
43153;BME280;28756;49.064;9.290;2023-04-10T05:27:56;99673.72;;;2.35;100.00
43153;BME280;28756;49.064;9.290;2023-04-10T05:30:22;99670.06;;;2.55;100.00
43153;BME280;28756;49.064;9.290;2023-04-10T05:32:47;99665.63;;;2.67;100.00
43153;BME280;28756;49.064;9.290;2023-04-10T05:35:13;99659.09;;;3.04;100.00
43153;BME280;28756;49.064;9.290;2023-04-10T05:37:39;99662.50;;;3.08;100.00
43153;BME280;28756;49.064;9.290;2023-04-10T05:40:06;99653.91;;;3.09;100.00
43153;BME280;28756;49.064;9.290;2023-04-10T05:42:32;99653.66;;;3.24;100.00
43153;BME280;28756;49.064;9.290;2023-04-10T05:44:58;99649.84;;;3.50;100.00
43153;BME280;28756;49.064;9.290;2023-04-10T05:47:24;99649.13;;;3.92;100.00
43153;BME280;28756;49.064;9.290;2023-04-10T05:49:49;99645.03;;;4.27;100.00
43153;BME280;28756;49.064;9.290;2023-04-10T05:52:15;99651.00;;;4.73;100.00
43153;BME280;28756;49.064;9.290;2023-04-10T05:54:41;99650.72;;;4.85;100.00
43153;BME280;28756;49.064;9.290;2023-04-10T05:57:06;99647.16;;;5.27;100.00
43153;BME280;28756;49.064;9.290;2023-04-10T05:59:32;99648.53;;;5.77;100.00
43153;BME280;28756;49.064;9.290;2023-04-10T06:01:58;99639.41;;;5.98;100.00
43153;BME280;28756;49.064;9.290;2023-04-10T06:04:24;99639.53;;;6.25;100.00
43153;BME280;28756;49.064;9.290;2023-04-10T06:06:49;99637.78;;;6.27;100.00
43153;BME280;28756;49.064;9.290;2023-04-10T06:09:15;99636.16;;;6.83;100.00
43153;BME280;28756;49.064;9.290;2023-04-10T06:11:41;99629.09;;;6.88;100.00
43153;BME280;28756;49.064;9.290;2023-04-10T06:14:07;99630.25;;;6.79;100.00
43153;BME280;28756;49.064;9.290;2023-04-10T06:16:32;99624.59;;;6.94;100.00
43153;BME280;28756;49.064;9.290;2023-04-10T06:18:58;99617.66;;;7.75;100.00
43153;BME280;28756;49.064;9.290;2023-04-10T06:21:24;99612.75;;;7.16;100.00
43153;BME280;28756;49.064;9.290;2023-04-10T06:23:50;99614.91;;;7.30;100.00
43153;BME280;28756;49.064;9.290;2023-04-10T06:26:16;99615.44;;;7.39;100.00
43153;BME280;28756;49.064;9.290;2023-04-10T06:28:42;99614.72;;;7.34;100.00
43153;BME280;28756;49.064;9.290;2023-04-10T06:31:08;99619.06;;;7.34;100.00
43153;BME280;28756;49.064;9.290;2023-04-10T06:33:33;99612.22;;;7.58;100.00
43153;BME280;28756;49.064;9.290;2023-04-10T06:36:01;99612.75;;;7.93;100.00
43153;BME280;28756;49.064;9.290;2023-04-10T06:38:28;99614.09;;;7.80;100.00
43153;BME280;28756;49.064;9.290;2023-04-10T06:40:54;99614.41;;;7.70;100.00
43153;BME280;28756;49.064;9.290;2023-04-10T06:43:20;99606.78;;;7.91;100.00
43153;BME280;28756;49.064;9.290;2023-04-10T06:45:45;99612.19;;;8.09;100.00
43153;BME280;28756;49.064;9.290;2023-04-10T06:48:11;99600.03;;;8.82;100.00
43153;BME280;28756;49.064;9.290;2023-04-10T06:50:37;99605.34;;;9.22;100.00
43153;BME280;28756;49.064;9.290;2023-04-10T06:53:03;99596.03;;;9.59;100.00
43153;BME280;28756;49.064;9.290;2023-04-10T06:55:29;99596.03;;;9.59;100.00
43153;BME280;28756;49.064;9.290;2023-04-10T06:57:55;99592.81;;;9.74;100.00
43153;BME280;28756;49.064;9.290;2023-04-10T07:00:21;99596.03;;;9.38;100.00
43153;BME280;28756;49.064;9.290;2023-04-10T07:02:47;99595.13;;;9.80;100.00
43153;BME280;28756;49.064;9.290;2023-04-10T07:05:14;99593.56;;;10.37;100.00
43153;BME280;28756;49.064;9.290;2023-04-10T07:07:41;99588.53;;;10.70;100.00
43153;BME280;28756;49.064;9.290;2023-04-10T07:10:07;99590.28;;;10.32;100.00
43153;BME280;28756;49.064;9.290;2023-04-10T07:12:33;99588.44;;;11.28;100.00
43153;BME280;28756;49.064;9.290;2023-04-10T07:14:59;99585.25;;;11.03;99.43
43153;BME280;28756;49.064;9.290;2023-04-10T07:17:25;99580.03;;;11.74;92.10
43153;BME280;28756;49.064;9.290;2023-04-10T07:19:51;99575.81;;;11.71;80.56
43153;BME280;28756;49.064;9.290;2023-04-10T07:22:17;99581.19;;;11.68;75.82
43153;BME280;28756;49.064;9.290;2023-04-10T07:24:42;99570.06;;;12.15;84.20
43153;BME280;28756;49.064;9.290;2023-04-10T07:27:08;99575.19;;;12.01;80.38
43153;BME280;28756;49.064;9.290;2023-04-10T07:29:34;99560.84;;;12.74;74.39
43153;BME280;28756;49.064;9.290;2023-04-10T07:32:00;99564.19;;;12.92;67.50
43153;BME280;28756;49.064;9.290;2023-04-10T07:34:26;99564.50;;;13.02;61.37
43153;BME280;28756;49.064;9.290;2023-04-10T07:36:52;99570.03;;;13.11;62.50
43153;BME280;28756;49.064;9.290;2023-04-10T07:39:17;99566.38;;;12.84;58.02
43153;BME280;28756;49.064;9.290;2023-04-10T07:41:43;99569.78;;;12.54;62.80
43153;BME280;28756;49.064;9.290;2023-04-10T07:44:09;99569.66;;;12.87;61.65
43153;BME280;28756;49.064;9.290;2023-04-10T07:46:35;99566.88;;;13.21;65.38
43153;BME280;28756;49.064;9.290;2023-04-10T07:49:02;99560.28;;;13.46;62.14
43153;BME280;28756;49.064;9.290;2023-04-10T07:51:28;99566.25;;;13.48;59.39
43153;BME280;28756;49.064;9.290;2023-04-10T07:53:56;99570.78;;;13.14;58.88
43153;BME280;28756;49.064;9.290;2023-04-10T07:56:25;99566.94;;;13.95;61.00
43153;BME280;28756;49.064;9.290;2023-04-10T07:58:58;99555.81;;;14.05;55.47
43153;BME280;28756;49.064;9.290;2023-04-10T08:01:24;99553.94;;;14.08;55.16
43153;BME280;28756;49.064;9.290;2023-04-10T08:03:50;99547.06;;;14.48;54.58
43153;BME280;28756;49.064;9.290;2023-04-10T08:06:16;99549.59;;;14.50;53.09
43153;BME280;28756;49.064;9.290;2023-04-10T08:08:42;99547.09;;;15.03;53.70
43153;BME280;28756;49.064;9.290;2023-04-10T08:11:24;99539.81;;;15.47;51.76
43153;BME280;28756;49.064;9.290;2023-04-10T08:13:59;99547.25;;;14.87;51.04
43153;BME280;28756;49.064;9.290;2023-04-10T08:16:35;99544.50;;;14.61;50.31
43153;BME280;28756;49.064;9.290;2023-04-10T08:19:02;99540.06;;;14.49;51.84
43153;BME280;28756;49.064;9.290;2023-04-10T08:21:29;99542.25;;;14.97;50.71
43153;BME280;28756;49.064;9.290;2023-04-10T08:23:58;99545.16;;;14.92;52.35
43153;BME280;28756;49.064;9.290;2023-04-10T08:26:25;99540.03;;;15.44;54.47
43153;BME280;28756;49.064;9.290;2023-04-10T08:28:54;99544.75;;;15.64;52.95
43153;BME280;28756;49.064;9.290;2023-04-10T08:31:22;99542.16;;;15.11;49.49
43153;BME280;28756;49.064;9.290;2023-04-10T08:33:48;99530.72;;;14.87;49.40
43153;BME280;28756;49.064;9.290;2023-04-10T08:36:14;99544.97;;;14.26;50.11
43153;BME280;28756;49.064;9.290;2023-04-10T08:38:42;99535.94;;;14.87;49.25
43153;BME280;28756;49.064;9.290;2023-04-10T08:41:18;99543.31;;;14.67;49.97
43153;BME280;28756;49.064;9.290;2023-04-10T08:43:44;99526.16;;;15.03;47.94
43153;BME280;28756;49.064;9.290;2023-04-10T08:46:11;99520.50;;;15.09;49.19
43153;BME280;28756;49.064;9.290;2023-04-10T08:51:18;99524.63;;;15.78;48.49
43153;BME280;28756;49.064;9.290;2023-04-10T08:53:45;99518.22;;;15.69;47.19
43153;BME280;28756;49.064;9.290;2023-04-10T08:56:13;99526.63;;;15.87;47.29
43153;BME280;28756;49.064;9.290;2023-04-10T08:58:41;99515.41;;;16.35;45.33
43153;BME280;28756;49.064;9.290;2023-04-10T09:01:08;99511.13;;;16.46;47.92
43153;BME280;28756;49.064;9.290;2023-04-10T09:03:35;99504.28;;;16.80;45.70
43153;BME280;28756;49.064;9.290;2023-04-10T09:06:02;99501.81;;;17.26;47.92
43153;BME280;28756;49.064;9.290;2023-04-10T09:08:29;99502.63;;;16.90;45.40
43153;BME280;28756;49.064;9.290;2023-04-10T09:10:55;99505.34;;;16.53;43.20
43153;BME280;28756;49.064;9.290;2023-04-10T09:13:41;99503.50;;;16.67;42.58
43153;BME280;28756;49.064;9.290;2023-04-10T09:16:09;99505.94;;;16.81;41.59
43153;BME280;28756;49.064;9.290;2023-04-10T09:18:49;99493.78;;;16.32;41.66
43153;BME280;28756;49.064;9.290;2023-04-10T09:21:18;99492.22;;;17.13;43.48
43153;BME280;28756;49.064;9.290;2023-04-10T09:23:47;99490.97;;;17.30;29.29
43153;BME280;28756;49.064;9.290;2023-04-10T09:26:30;99502.94;;;17.46;38.88
43153;BME280;28756;49.064;9.290;2023-04-10T09:29:04;99487.91;;;17.01;41.25
43153;BME280;28756;49.064;9.290;2023-04-10T09:31:32;99481.84;;;15.90;29.52
43153;BME280;28756;49.064;9.290;2023-04-10T09:34:19;99481.44;;;16.94;41.23
43153;BME280;28756;49.064;9.290;2023-04-10T09:36:57;99476.19;;;17.05;39.29
43153;BME280;28756;49.064;9.290;2023-04-10T09:39:39;99474.84;;;17.46;39.57
43153;BME280;28756;49.064;9.290;2023-04-10T09:42:09;99465.66;;;17.63;38.04
43153;BME280;28756;49.064;9.290;2023-04-10T09:44:40;99460.97;;;17.78;38.64
43153;BME280;28756;49.064;9.290;2023-04-10T09:47:17;99456.66;;;18.00;38.21
43153;BME280;28756;49.064;9.290;2023-04-10T09:49:52;99451.16;;;17.46;37.00
43153;BME280;28756;49.064;9.290;2023-04-10T09:52:25;99451.91;;;17.48;35.73
43153;BME280;28756;49.064;9.290;2023-04-10T09:54:56;99443.75;;;17.17;37.46
43153;BME280;28756;49.064;9.290;2023-04-10T09:57:24;99439.06;;;17.10;37.25
43153;BME280;28756;49.064;9.290;2023-04-10T09:59:56;99434.41;;;17.13;34.00
43153;BME280;28756;49.064;9.290;2023-04-10T10:02:24;99435.63;;;17.89;36.94
43153;BME280;28756;49.064;9.290;2023-04-10T10:04:51;99433.25;;;17.51;37.19
43153;BME280;28756;49.064;9.290;2023-04-10T10:07:22;99429.91;;;17.83;37.45
43153;BME280;28756;49.064;9.290;2023-04-10T10:09:50;99427.25;;;17.72;24.23
43153;BME280;28756;49.064;9.290;2023-04-10T10:12:39;99428.09;;;17.84;37.70
43153;BME280;28756;49.064;9.290;2023-04-10T10:18:16;99424.63;;;17.38;39.51
43153;BME280;28756;49.064;9.290;2023-04-10T10:20:45;99417.06;;;17.90;38.46
43153;BME280;28756;49.064;9.290;2023-04-10T10:23:12;99407.28;;;18.36;38.31
43153;BME280;28756;49.064;9.290;2023-04-10T10:25:40;99409.00;;;18.58;36.72
43153;BME280;28756;49.064;9.290;2023-04-10T10:28:06;99404.22;;;18.73;36.98
43153;BME280;28756;49.064;9.290;2023-04-10T10:30:36;99403.47;;;18.83;35.67
43153;BME280;28756;49.064;9.290;2023-04-10T10:33:06;99391.41;;;19.01;35.63
43153;BME280;28756;49.064;9.290;2023-04-10T10:35:34;99390.03;;;18.86;35.64
43153;BME280;28756;49.064;9.290;2023-04-10T10:38:05;99391.56;;;18.46;37.16
43153;BME280;28756;49.064;9.290;2023-04-10T10:40:53;99392.44;;;18.35;36.32
43153;BME280;28756;49.064;9.290;2023-04-10T10:46:34;99381.00;;;17.70;35.88
43153;BME280;28756;49.064;9.290;2023-04-10T10:49:02;99383.28;;;17.74;37.92
43153;BME280;28756;49.064;9.290;2023-04-10T10:52:00;99376.47;;;17.60;39.25
43153;BME280;28756;49.064;9.290;2023-04-10T10:54:31;99373.13;;;17.58;38.15
43153;BME280;28756;49.064;9.290;2023-04-10T10:56:58;99375.41;;;17.63;37.90
43153;BME280;28756;49.064;9.290;2023-04-10T11:02:16;99371.97;;;17.28;40.53
43153;BME280;28756;49.064;9.290;2023-04-10T11:04:47;99366.44;;;17.09;37.39
43153;BME280;28756;49.064;9.290;2023-04-10T11:07:14;99369.50;;;16.68;38.30
43153;BME280;28756;49.064;9.290;2023-04-10T11:09:53;99368.56;;;16.45;39.84
43153;BME280;28756;49.064;9.290;2023-04-10T11:12:28;99364.75;;;16.85;38.91
43153;BME280;28756;49.064;9.290;2023-04-10T11:15:00;99366.31;;;17.44;39.08
43153;BME280;28756;49.064;9.290;2023-04-10T11:17:47;99362.41;;;17.94;36.82
43153;BME280;28756;49.064;9.290;2023-04-10T11:20:17;99356.94;;;17.97;36.81
43153;BME280;28756;49.064;9.290;2023-04-10T11:23:09;99349.38;;;17.37;37.00
43153;BME280;28756;49.064;9.290;2023-04-10T11:25:54;99338.75;;;18.47;36.68
43153;BME280;28756;49.064;9.290;2023-04-10T11:28:34;99340.53;;;18.26;36.94
43153;BME280;28756;49.064;9.290;2023-04-10T11:33:45;99340.94;;;17.77;35.81
43153;BME280;28756;49.064;9.290;2023-04-10T11:36:15;99344.69;;;17.52;37.76
43153;BME280;28756;49.064;9.290;2023-04-10T11:38:58;99335.13;;;17.62;36.31
43153;BME280;28756;49.064;9.290;2023-04-10T11:41:29;99330.41;;;17.77;36.60
43153;BME280;28756;49.064;9.290;2023-04-10T11:44:00;99333.22;;;18.29;37.02
43153;BME280;28756;49.064;9.290;2023-04-10T11:46:27;99329.75;;;18.08;36.39
43153;BME280;28756;49.064;9.290;2023-04-10T11:48:57;99323.09;;;18.25;36.32
43153;BME280;28756;49.064;9.290;2023-04-10T11:51:23;99328.13;;;17.95;34.82
43153;BME280;28756;49.064;9.290;2023-04-10T11:53:49;99321.41;;;18.03;35.69
43153;BME280;28756;49.064;9.290;2023-04-10T11:56:17;99323.56;;;17.31;33.92
43153;BME280;28756;49.064;9.290;2023-04-10T11:58:43;99313.06;;;17.31;35.00
43153;BME280;28756;49.064;9.290;2023-04-10T12:01:09;99300.22;;;17.93;36.58
43153;BME280;28756;49.064;9.290;2023-04-10T12:03:41;99302.03;;;17.48;36.32
43153;BME280;28756;49.064;9.290;2023-04-10T12:06:12;99288.75;;;17.94;34.23
43153;BME280;28756;49.064;9.290;2023-04-10T12:08:42;99285.00;;;17.75;35.64
43153;BME280;28756;49.064;9.290;2023-04-10T12:11:10;99276.84;;;17.78;35.66
43153;BME280;28756;49.064;9.290;2023-04-10T12:13:38;99279.91;;;17.95;35.36
43153;BME280;28756;49.064;9.290;2023-04-10T12:16:06;99278.09;;;17.63;35.55
43153;BME280;28756;49.064;9.290;2023-04-10T12:18:34;99279.19;;;17.93;35.01
43153;BME280;28756;49.064;9.290;2023-04-10T12:21:01;99266.00;;;18.04;35.94
43153;BME280;28756;49.064;9.290;2023-04-10T12:23:29;99267.50;;;17.53;34.16
43153;BME280;28756;49.064;9.290;2023-04-10T12:26:16;99257.13;;;17.73;36.45
43153;BME280;28756;49.064;9.290;2023-04-10T12:28:52;99260.44;;;17.86;33.93
43153;BME280;28756;49.064;9.290;2023-04-10T12:31:30;99254.63;;;17.82;37.07
43153;BME280;28756;49.064;9.290;2023-04-10T12:33:57;99254.50;;;17.73;36.42
43153;BME280;28756;49.064;9.290;2023-04-10T12:36:26;99248.34;;;17.62;34.85
43153;BME280;28756;49.064;9.290;2023-04-10T12:39:02;99242.34;;;17.93;35.24
43153;BME280;28756;49.064;9.290;2023-04-10T12:41:32;99243.06;;;17.95;33.74
43153;BME280;28756;49.064;9.290;2023-04-10T12:44:11;99243.94;;;17.84;36.96
43153;BME280;28756;49.064;9.290;2023-04-10T12:46:37;99230.91;;;17.61;35.38
43153;BME280;28756;49.064;9.290;2023-04-10T12:49:14;99235.00;;;17.43;34.12
43153;BME280;28756;49.064;9.290;2023-04-10T12:51:45;99221.94;;;17.52;35.90
43153;BME280;28756;49.064;9.290;2023-04-10T12:54:24;99219.91;;;17.56;35.28
43153;BME280;28756;49.064;9.290;2023-04-10T12:56:51;99214.22;;;16.96;34.77
43153;BME280;28756;49.064;9.290;2023-04-10T12:59:18;99219.09;;;17.12;37.49
43153;BME280;28756;49.064;9.290;2023-04-10T13:01:43;99217.78;;;17.06;36.06
43153;BME280;28756;49.064;9.290;2023-04-10T13:04:10;99211.06;;;17.13;36.76
43153;BME280;28756;49.064;9.290;2023-04-10T13:06:46;99214.78;;;17.11;35.76
43153;BME280;28756;49.064;9.290;2023-04-10T13:09:13;99205.34;;;17.08;35.13
43153;BME280;28756;49.064;9.290;2023-04-10T13:11:39;99201.88;;;17.19;35.90
43153;BME280;28756;49.064;9.290;2023-04-10T13:14:05;99199.31;;;17.29;36.39
43153;BME280;28756;49.064;9.290;2023-04-10T13:16:31;99202.50;;;17.44;35.36
43153;BME280;28756;49.064;9.290;2023-04-10T13:18:57;99202.84;;;17.50;37.50
43153;BME280;28756;49.064;9.290;2023-04-10T13:21:22;99190.75;;;17.80;35.87
43153;BME280;28756;49.064;9.290;2023-04-10T13:23:51;99191.03;;;17.45;34.46
43153;BME280;28756;49.064;9.290;2023-04-10T13:26:17;99180.75;;;17.74;36.12
43153;BME280;28756;49.064;9.290;2023-04-10T13:28:43;99179.00;;;17.42;36.30
43153;BME280;28756;49.064;9.290;2023-04-10T13:31:09;99188.06;;;17.71;36.88
43153;BME280;28756;49.064;9.290;2023-04-10T13:33:35;99177.47;;;17.82;36.25